sensor_id;sensor_type;location;lat;lon;timestamp;temperature;humidity
12123;DHT22;6125;59.628;17.852;2023-11-25T00:00:05;-1.70;99.90
12123;DHT22;6125;59.628;17.852;2023-11-25T00:02:33;-1.70;99.90
12123;DHT22;6125;59.628;17.852;2023-11-25T00:05:02;-1.70;99.90
12123;DHT22;6125;59.628;17.852;2023-11-25T00:07:32;-1.60;99.90
12123;DHT22;6125;59.628;17.852;2023-11-25T00:10:01;-1.70;99.90
12123;DHT22;6125;59.628;17.852;2023-11-25T00:12:31;-1.60;99.90
12123;DHT22;6125;59.628;17.852;2023-11-25T00:15:00;-1.60;99.90
12123;DHT22;6125;59.628;17.852;2023-11-25T00:17:28;-1.70;99.90
12123;DHT22;6125;59.628;17.852;2023-11-25T00:19:57;-1.60;99.90
12123;DHT22;6125;59.628;17.852;2023-11-25T00:22:26;-1.60;99.90
12123;DHT22;6125;59.628;17.852;2023-11-25T00:24:53;-1.60;99.90
12123;DHT22;6125;59.628;17.852;2023-11-25T00:27:20;-1.60;99.90
12123;DHT22;6125;59.628;17.852;2023-11-25T00:29:48;-1.60;99.90
12123;DHT22;6125;59.628;17.852;2023-11-25T00:32:15;-1.60;99.90
12123;DHT22;6125;59.628;17.852;2023-11-25T00:34:43;-1.70;99.90
12123;DHT22;6125;59.628;17.852;2023-11-25T00:37:13;-1.70;99.90
12123;DHT22;6125;59.628;17.852;2023-11-25T00:39:43;-1.70;99.90
12123;DHT22;6125;59.628;17.852;2023-11-25T00:42:16;-1.70;99.90
12123;DHT22;6125;59.628;17.852;2023-11-25T00:44:46;-1.70;99.90
12123;DHT22;6125;59.628;17.852;2023-11-25T00:47:14;-1.80;99.90
12123;DHT22;6125;59.628;17.852;2023-11-25T00:49:41;-1.70;99.90
12123;DHT22;6125;59.628;17.852;2023-11-25T00:52:10;-1.70;99.90
12123;DHT22;6125;59.628;17.852;2023-11-25T00:54:39;-1.70;99.90
12123;DHT22;6125;59.628;17.852;2023-11-25T00:57:10;-1.80;99.90
12123;DHT22;6125;59.628;17.852;2023-11-25T00:59:37;-1.80;99.90
12123;DHT22;6125;59.628;17.852;2023-11-25T01:02:05;-1.80;99.90
12123;DHT22;6125;59.628;17.852;2023-11-25T01:04:32;-1.80;99.90
12123;DHT22;6125;59.628;17.852;2023-11-25T01:06:59;-1.80;99.90
12123;DHT22;6125;59.628;17.852;2023-11-25T01:09:27;-1.80;99.90
12123;DHT22;6125;59.628;17.852;2023-11-25T01:11:57;-1.80;99.90
12123;DHT22;6125;59.628;17.852;2023-11-25T01:14:26;-1.80;99.90
12123;DHT22;6125;59.628;17.852;2023-11-25T01:16:54;-1.80;99.90
12123;DHT22;6125;59.628;17.852;2023-11-25T01:19:23;-1.70;99.90
12123;DHT22;6125;59.628;17.852;2023-11-25T01:21:51;-1.80;99.90
12123;DHT22;6125;59.628;17.852;2023-11-25T01:24:24;-1.80;99.90
12123;DHT22;6125;59.628;17.852;2023-11-25T01:26:53;-1.80;99.90
12123;DHT22;6125;59.628;17.852;2023-11-25T01:29:22;-1.80;99.90
12123;DHT22;6125;59.628;17.852;2023-11-25T01:31:51;-1.90;99.90
12123;DHT22;6125;59.628;17.852;2023-11-25T01:34:20;-1.90;99.90
12123;DHT22;6125;59.628;17.852;2023-11-25T01:36:47;-1.90;99.90
12123;DHT22;6125;59.628;17.852;2023-11-25T01:39:15;-1.90;99.90
12123;DHT22;6125;59.628;17.852;2023-11-25T01:41:43;-1.90;99.90
12123;DHT22;6125;59.628;17.852;2023-11-25T01:44:10;-1.90;99.90
12123;DHT22;6125;59.628;17.852;2023-11-25T01:46:38;-2.00;99.90
12123;DHT22;6125;59.628;17.852;2023-11-25T01:49:11;-2.00;99.90
12123;DHT22;6125;59.628;17.852;2023-11-25T01:51:40;-2.00;99.90
12123;DHT22;6125;59.628;17.852;2023-11-25T01:54:17;-2.00;99.90
12123;DHT22;6125;59.628;17.852;2023-11-25T01:56:48;-2.00;99.90
12123;DHT22;6125;59.628;17.852;2023-11-25T01:59:16;-2.00;99.90
12123;DHT22;6125;59.628;17.852;2023-11-25T02:01:47;-2.00;99.90
12123;DHT22;6125;59.628;17.852;2023-11-25T02:04:16;-2.00;99.90
12123;DHT22;6125;59.628;17.852;2023-11-25T02:06:43;-2.10;99.90
12123;DHT22;6125;59.628;17.852;2023-11-25T02:09:10;-2.10;99.90
12123;DHT22;6125;59.628;17.852;2023-11-25T02:11:55;-2.20;99.90
12123;DHT22;6125;59.628;17.852;2023-11-25T02:14:23;-2.20;99.90
12123;DHT22;6125;59.628;17.852;2023-11-25T02:16:52;-2.20;99.90
12123;DHT22;6125;59.628;17.852;2023-11-25T02:19:23;-2.30;99.90
12123;DHT22;6125;59.628;17.852;2023-11-25T02:21:52;-2.30;99.90
12123;DHT22;6125;59.628;17.852;2023-11-25T02:24:21;-2.30;99.90
12123;DHT22;6125;59.628;17.852;2023-11-25T02:26:58;-2.30;99.90
12123;DHT22;6125;59.628;17.852;2023-11-25T02:29:32;-2.40;99.90
12123;DHT22;6125;59.628;17.852;2023-11-25T02:32:02;-2.40;99.90
12123;DHT22;6125;59.628;17.852;2023-11-25T02:34:36;-2.40;99.90
12123;DHT22;6125;59.628;17.852;2023-11-25T02:37:05;-2.40;99.90
12123;DHT22;6125;59.628;17.852;2023-11-25T02:39:34;-2.40;99.90
12123;DHT22;6125;59.628;17.852;2023-11-25T02:42:03;-2.50;99.90
12123;DHT22;6125;59.628;17.852;2023-11-25T02:44:32;-2.50;99.90
12123;DHT22;6125;59.628;17.852;2023-11-25T02:47:12;-2.60;99.90
12123;DHT22;6125;59.628;17.852;2023-11-25T02:49:41;-2.70;99.90
12123;DHT22;6125;59.628;17.852;2023-11-25T02:52:08;-2.80;99.90
12123;DHT22;6125;59.628;17.852;2023-11-25T02:54:37;-2.90;99.90
12123;DHT22;6125;59.628;17.852;2023-11-25T02:57:05;-3.00;99.90
12123;DHT22;6125;59.628;17.852;2023-11-25T02:59:33;-3.00;99.90
12123;DHT22;6125;59.628;17.852;2023-11-25T03:02:03;-3.00;99.90
12123;DHT22;6125;59.628;17.852;2023-11-25T03:04:35;-3.00;99.90
12123;DHT22;6125;59.628;17.852;2023-11-25T03:07:07;-3.00;99.90
12123;DHT22;6125;59.628;17.852;2023-11-25T03:09:34;-3.10;99.90
12123;DHT22;6125;59.628;17.852;2023-11-25T03:12:06;-3.10;99.90
12123;DHT22;6125;59.628;17.852;2023-11-25T03:14:33;-3.20;99.90
12123;DHT22;6125;59.628;17.852;2023-11-25T03:17:01;-3.20;99.90
12123;DHT22;6125;59.628;17.852;2023-11-25T03:19:29;-3.20;99.90
12123;DHT22;6125;59.628;17.852;2023-11-25T03:21:57;-3.30;99.90
12123;DHT22;6125;59.628;17.852;2023-11-25T03:24:24;-3.30;99.90
12123;DHT22;6125;59.628;17.852;2023-11-25T03:26:51;-3.40;99.90
12123;DHT22;6125;59.628;17.852;2023-11-25T03:29:20;-3.40;99.90
12123;DHT22;6125;59.628;17.852;2023-11-25T03:31:47;-3.40;99.90
12123;DHT22;6125;59.628;17.852;2023-11-25T03:34:14;-3.40;99.90
12123;DHT22;6125;59.628;17.852;2023-11-25T03:36:42;-3.50;99.90
12123;DHT22;6125;59.628;17.852;2023-11-25T03:39:10;-3.50;99.90
12123;DHT22;6125;59.628;17.852;2023-11-25T03:41:40;-3.50;99.90
12123;DHT22;6125;59.628;17.852;2023-11-25T03:44:08;-3.50;99.90
12123;DHT22;6125;59.628;17.852;2023-11-25T03:46:39;-3.50;99.90
12123;DHT22;6125;59.628;17.852;2023-11-25T03:49:06;-3.50;99.90
12123;DHT22;6125;59.628;17.852;2023-11-25T03:51:35;-3.50;99.90
12123;DHT22;6125;59.628;17.852;2023-11-25T03:54:04;-3.60;99.90
12123;DHT22;6125;59.628;17.852;2023-11-25T03:56:32;-3.50;99.90
12123;DHT22;6125;59.628;17.852;2023-11-25T03:58:59;-3.60;99.90
12123;DHT22;6125;59.628;17.852;2023-11-25T04:01:26;-3.60;99.90
12123;DHT22;6125;59.628;17.852;2023-11-25T04:03:55;-3.70;99.90
12123;DHT22;6125;59.628;17.852;2023-11-25T04:06:22;-3.70;99.90
12123;DHT22;6125;59.628;17.852;2023-11-25T04:08:51;-3.70;99.90
12123;DHT22;6125;59.628;17.852;2023-11-25T04:11:19;-3.70;99.90
12123;DHT22;6125;59.628;17.852;2023-11-25T04:13:47;-3.80;99.90
12123;DHT22;6125;59.628;17.852;2023-11-25T04:16:14;-3.80;99.90
12123;DHT22;6125;59.628;17.852;2023-11-25T04:18:41;-3.80;99.90
12123;DHT22;6125;59.628;17.852;2023-11-25T04:21:10;-3.90;99.90
12123;DHT22;6125;59.628;17.852;2023-11-25T04:23:37;-4.00;99.90
12123;DHT22;6125;59.628;17.852;2023-11-25T04:26:07;-4.10;99.90
12123;DHT22;6125;59.628;17.852;2023-11-25T04:28:35;-4.10;99.90
12123;DHT22;6125;59.628;17.852;2023-11-25T04:31:02;-4.10;99.90
12123;DHT22;6125;59.628;17.852;2023-11-25T04:33:30;-4.20;99.90
12123;DHT22;6125;59.628;17.852;2023-11-25T04:35:59;-4.20;99.90
12123;DHT22;6125;59.628;17.852;2023-11-25T04:38:33;-4.10;99.90
12123;DHT22;6125;59.628;17.852;2023-11-25T04:41:00;-4.20;99.90
12123;DHT22;6125;59.628;17.852;2023-11-25T04:43:29;-4.20;99.90
12123;DHT22;6125;59.628;17.852;2023-11-25T04:45:56;-4.20;99.90
12123;DHT22;6125;59.628;17.852;2023-11-25T04:48:25;-4.20;99.90
12123;DHT22;6125;59.628;17.852;2023-11-25T04:50:52;-4.20;99.90
12123;DHT22;6125;59.628;17.852;2023-11-25T04:53:23;-4.20;99.90
12123;DHT22;6125;59.628;17.852;2023-11-25T04:55:54;-4.20;99.90
12123;DHT22;6125;59.628;17.852;2023-11-25T04:58:21;-4.20;99.90
12123;DHT22;6125;59.628;17.852;2023-11-25T05:00:48;-4.10;99.90
12123;DHT22;6125;59.628;17.852;2023-11-25T05:03:16;-4.10;99.90
12123;DHT22;6125;59.628;17.852;2023-11-25T05:05:45;-4.00;99.90
12123;DHT22;6125;59.628;17.852;2023-11-25T05:08:13;-4.00;99.90
12123;DHT22;6125;59.628;17.852;2023-11-25T05:10:41;-3.90;99.90
12123;DHT22;6125;59.628;17.852;2023-11-25T05:13:09;-4.00;99.90
12123;DHT22;6125;59.628;17.852;2023-11-25T05:15:37;-4.00;99.90
12123;DHT22;6125;59.628;17.852;2023-11-25T05:18:04;-4.00;99.90
12123;DHT22;6125;59.628;17.852;2023-11-25T05:20:32;-3.90;99.90
12123;DHT22;6125;59.628;17.852;2023-11-25T05:23:00;-3.90;99.90
12123;DHT22;6125;59.628;17.852;2023-11-25T05:25:27;-3.90;99.90
12123;DHT22;6125;59.628;17.852;2023-11-25T05:27:56;-3.80;99.90
12123;DHT22;6125;59.628;17.852;2023-11-25T05:30:26;-4.00;99.90
12123;DHT22;6125;59.628;17.852;2023-11-25T05:32:54;-4.00;99.90
12123;DHT22;6125;59.628;17.852;2023-11-25T05:35:21;-4.00;99.90
12123;DHT22;6125;59.628;17.852;2023-11-25T05:37:48;-4.00;99.90
12123;DHT22;6125;59.628;17.852;2023-11-25T05:40:16;-4.00;99.90
12123;DHT22;6125;59.628;17.852;2023-11-25T05:42:43;-4.00;99.90
12123;DHT22;6125;59.628;17.852;2023-11-25T05:45:19;-3.90;99.90
12123;DHT22;6125;59.628;17.852;2023-11-25T05:47:53;-3.90;99.90
12123;DHT22;6125;59.628;17.852;2023-11-25T05:50:21;-3.90;99.90
12123;DHT22;6125;59.628;17.852;2023-11-25T05:52:50;-3.90;99.90
12123;DHT22;6125;59.628;17.852;2023-11-25T05:55:18;-3.90;99.90
12123;DHT22;6125;59.628;17.852;2023-11-25T05:57:46;-3.80;99.90
12123;DHT22;6125;59.628;17.852;2023-11-25T06:00:17;-3.80;99.90
12123;DHT22;6125;59.628;17.852;2023-11-25T06:02:45;-3.80;99.90
12123;DHT22;6125;59.628;17.852;2023-11-25T06:05:13;-3.90;99.90
12123;DHT22;6125;59.628;17.852;2023-11-25T06:07:41;-3.80;99.90
12123;DHT22;6125;59.628;17.852;2023-11-25T06:10:08;-3.90;99.90
12123;DHT22;6125;59.628;17.852;2023-11-25T06:12:36;-4.00;99.90
12123;DHT22;6125;59.628;17.852;2023-11-25T06:15:05;-3.90;99.90
12123;DHT22;6125;59.628;17.852;2023-11-25T06:17:33;-4.00;99.90
12123;DHT22;6125;59.628;17.852;2023-11-25T06:20:00;-4.00;99.90
12123;DHT22;6125;59.628;17.852;2023-11-25T06:22:30;-4.10;99.90
12123;DHT22;6125;59.628;17.852;2023-11-25T06:24:57;-4.10;99.90
12123;DHT22;6125;59.628;17.852;2023-11-25T06:27:26;-4.20;99.90
12123;DHT22;6125;59.628;17.852;2023-11-25T06:29:53;-4.30;99.90
12123;DHT22;6125;59.628;17.852;2023-11-25T06:32:20;-4.30;99.90
12123;DHT22;6125;59.628;17.852;2023-11-25T06:34:48;-4.40;99.90
12123;DHT22;6125;59.628;17.852;2023-11-25T06:37:16;-4.40;99.90
12123;DHT22;6125;59.628;17.852;2023-11-25T06:39:45;-4.40;99.90
12123;DHT22;6125;59.628;17.852;2023-11-25T06:42:12;-4.50;99.90
12123;DHT22;6125;59.628;17.852;2023-11-25T06:44:40;-4.60;99.90
12123;DHT22;6125;59.628;17.852;2023-11-25T06:47:08;-4.50;99.90
12123;DHT22;6125;59.628;17.852;2023-11-25T06:49:36;-4.60;99.90
12123;DHT22;6125;59.628;17.852;2023-11-25T06:52:04;-4.70;99.90
12123;DHT22;6125;59.628;17.852;2023-11-25T06:54:32;-4.80;99.90
12123;DHT22;6125;59.628;17.852;2023-11-25T06:57:03;-4.90;99.90
12123;DHT22;6125;59.628;17.852;2023-11-25T06:59:30;-4.90;99.90
12123;DHT22;6125;59.628;17.852;2023-11-25T07:01:58;-4.90;99.90
12123;DHT22;6125;59.628;17.852;2023-11-25T07:04:25;-5.00;99.90
12123;DHT22;6125;59.628;17.852;2023-11-25T07:06:54;-5.00;99.90
12123;DHT22;6125;59.628;17.852;2023-11-25T07:09:21;-5.10;99.90
12123;DHT22;6125;59.628;17.852;2023-11-25T07:11:50;-5.10;99.90
12123;DHT22;6125;59.628;17.852;2023-11-25T07:14:18;-5.20;99.90
12123;DHT22;6125;59.628;17.852;2023-11-25T07:16:48;-5.20;99.90
12123;DHT22;6125;59.628;17.852;2023-11-25T07:19:19;-5.30;99.90
12123;DHT22;6125;59.628;17.852;2023-11-25T07:21:46;-5.30;99.90
12123;DHT22;6125;59.628;17.852;2023-11-25T07:24:13;-5.30;99.90
12123;DHT22;6125;59.628;17.852;2023-11-25T07:26:43;-5.40;99.90
12123;DHT22;6125;59.628;17.852;2023-11-25T07:29:18;-5.40;99.90
12123;DHT22;6125;59.628;17.852;2023-11-25T07:31:56;-5.40;99.90
12123;DHT22;6125;59.628;17.852;2023-11-25T07:34:24;-5.40;99.90
12123;DHT22;6125;59.628;17.852;2023-11-25T07:36:54;-5.40;99.90
12123;DHT22;6125;59.628;17.852;2023-11-25T07:39:22;-5.40;99.90
12123;DHT22;6125;59.628;17.852;2023-11-25T07:41:50;-5.50;99.90
12123;DHT22;6125;59.628;17.852;2023-11-25T07:44:22;-5.50;99.90
12123;DHT22;6125;59.628;17.852;2023-11-25T07:46:50;-5.50;99.90
12123;DHT22;6125;59.628;17.852;2023-11-25T07:49:17;-5.60;99.90
12123;DHT22;6125;59.628;17.852;2023-11-25T07:51:45;-5.60;99.90
12123;DHT22;6125;59.628;17.852;2023-11-25T07:54:14;-5.70;99.90
12123;DHT22;6125;59.628;17.852;2023-11-25T07:56:43;-5.70;99.90
12123;DHT22;6125;59.628;17.852;2023-11-25T07:59:10;-5.80;99.90
12123;DHT22;6125;59.628;17.852;2023-11-25T08:01:39;-5.80;99.90
12123;DHT22;6125;59.628;17.852;2023-11-25T08:04:06;-5.90;99.90
12123;DHT22;6125;59.628;17.852;2023-11-25T08:06:33;-5.90;99.90
12123;DHT22;6125;59.628;17.852;2023-11-25T08:09:01;-6.00;99.90
12123;DHT22;6125;59.628;17.852;2023-11-25T08:11:29;-6.10;99.90
12123;DHT22;6125;59.628;17.852;2023-11-25T08:13:58;-6.10;99.90
12123;DHT22;6125;59.628;17.852;2023-11-25T08:16:25;-6.20;99.90
12123;DHT22;6125;59.628;17.852;2023-11-25T08:18:54;-6.20;99.90
12123;DHT22;6125;59.628;17.852;2023-11-25T08:21:24;-6.30;99.90
12123;DHT22;6125;59.628;17.852;2023-11-25T08:23:53;-6.30;99.90
12123;DHT22;6125;59.628;17.852;2023-11-25T08:26:21;-6.30;99.90
12123;DHT22;6125;59.628;17.852;2023-11-25T08:28:49;-6.30;99.90
12123;DHT22;6125;59.628;17.852;2023-11-25T08:31:17;-6.30;99.90
12123;DHT22;6125;59.628;17.852;2023-11-25T08:33:44;-6.30;99.90
12123;DHT22;6125;59.628;17.852;2023-11-25T08:36:14;-6.30;99.90
12123;DHT22;6125;59.628;17.852;2023-11-25T08:38:43;-6.20;99.90
12123;DHT22;6125;59.628;17.852;2023-11-25T08:41:13;-6.20;99.90
12123;DHT22;6125;59.628;17.852;2023-11-25T08:43:42;-6.20;99.90
12123;DHT22;6125;59.628;17.852;2023-11-25T08:46:11;-6.40;99.90
12123;DHT22;6125;59.628;17.852;2023-11-25T08:48:39;-6.20;99.90
12123;DHT22;6125;59.628;17.852;2023-11-25T08:51:08;-6.20;99.90
12123;DHT22;6125;59.628;17.852;2023-11-25T08:53:38;-6.20;99.90
12123;DHT22;6125;59.628;17.852;2023-11-25T08:56:06;-6.20;99.90
12123;DHT22;6125;59.628;17.852;2023-11-25T08:58:35;-6.10;99.90
12123;DHT22;6125;59.628;17.852;2023-11-25T09:01:02;-6.10;99.90
12123;DHT22;6125;59.628;17.852;2023-11-25T09:03:30;-6.10;99.90
12123;DHT22;6125;59.628;17.852;2023-11-25T09:06:00;-6.00;99.90
12123;DHT22;6125;59.628;17.852;2023-11-25T09:08:28;-6.00;99.90
12123;DHT22;6125;59.628;17.852;2023-11-25T09:10:57;-6.00;99.90
12123;DHT22;6125;59.628;17.852;2023-11-25T09:13:26;-6.00;99.90
12123;DHT22;6125;59.628;17.852;2023-11-25T09:15:54;-5.90;99.90
12123;DHT22;6125;59.628;17.852;2023-11-25T09:18:22;-5.90;99.90
12123;DHT22;6125;59.628;17.852;2023-11-25T09:20:49;-5.90;99.90
12123;DHT22;6125;59.628;17.852;2023-11-25T09:23:16;-6.10;99.90
12123;DHT22;6125;59.628;17.852;2023-11-25T09:25:43;-5.90;99.90
12123;DHT22;6125;59.628;17.852;2023-11-25T09:28:13;-5.90;99.90
12123;DHT22;6125;59.628;17.852;2023-11-25T09:30:42;-6.00;99.90
12123;DHT22;6125;59.628;17.852;2023-11-25T09:33:12;-5.90;99.90
12123;DHT22;6125;59.628;17.852;2023-11-25T09:35:39;-6.00;99.90
12123;DHT22;6125;59.628;17.852;2023-11-25T09:38:06;-6.00;99.90
12123;DHT22;6125;59.628;17.852;2023-11-25T09:40:34;-6.00;99.90
12123;DHT22;6125;59.628;17.852;2023-11-25T09:43:02;-6.00;99.90
12123;DHT22;6125;59.628;17.852;2023-11-25T09:45:30;-6.00;99.90
12123;DHT22;6125;59.628;17.852;2023-11-25T09:48:01;-5.90;99.90
12123;DHT22;6125;59.628;17.852;2023-11-25T09:50:28;-5.80;99.90
12123;DHT22;6125;59.628;17.852;2023-11-25T09:52:59;-5.70;99.90
12123;DHT22;6125;59.628;17.852;2023-11-25T09:55:30;-5.70;99.90
12123;DHT22;6125;59.628;17.852;2023-11-25T09:58:02;-5.70;99.90
12123;DHT22;6125;59.628;17.852;2023-11-25T10:00:35;-5.60;99.90
12123;DHT22;6125;59.628;17.852;2023-11-25T10:03:07;-5.60;99.90
12123;DHT22;6125;59.628;17.852;2023-11-25T10:05:34;-5.70;99.90
12123;DHT22;6125;59.628;17.852;2023-11-25T10:08:02;-5.80;99.90
12123;DHT22;6125;59.628;17.852;2023-11-25T10:10:30;-5.80;99.90
12123;DHT22;6125;59.628;17.852;2023-11-25T10:12:59;-5.80;99.90
12123;DHT22;6125;59.628;17.852;2023-11-25T10:15:33;-5.80;99.90
12123;DHT22;6125;59.628;17.852;2023-11-25T10:18:10;-5.80;99.90
12123;DHT22;6125;59.628;17.852;2023-11-25T10:20:41;-5.90;99.90
12123;DHT22;6125;59.628;17.852;2023-11-25T10:23:10;-5.90;99.90
12123;DHT22;6125;59.628;17.852;2023-11-25T10:25:49;-5.90;99.90
12123;DHT22;6125;59.628;17.852;2023-11-25T10:28:18;-5.90;99.90
12123;DHT22;6125;59.628;17.852;2023-11-25T10:30:54;-5.90;99.90
12123;DHT22;6125;59.628;17.852;2023-11-25T10:33:22;-5.90;99.90
12123;DHT22;6125;59.628;17.852;2023-11-25T10:35:58;-5.80;99.90
12123;DHT22;6125;59.628;17.852;2023-11-25T10:38:27;-5.70;99.90
12123;DHT22;6125;59.628;17.852;2023-11-25T10:40:59;-5.70;99.90
12123;DHT22;6125;59.628;17.852;2023-11-25T10:43:27;-5.60;99.90
12123;DHT22;6125;59.628;17.852;2023-11-25T10:46:07;-5.50;99.90
12123;DHT22;6125;59.628;17.852;2023-11-25T10:48:35;-5.50;99.90
12123;DHT22;6125;59.628;17.852;2023-11-25T10:51:04;-5.50;99.90
12123;DHT22;6125;59.628;17.852;2023-11-25T10:53:32;-5.40;99.90
12123;DHT22;6125;59.628;17.852;2023-11-25T10:56:01;-5.40;99.90
12123;DHT22;6125;59.628;17.852;2023-11-25T10:58:30;-5.40;99.90
12123;DHT22;6125;59.628;17.852;2023-11-25T11:00:58;-5.50;99.90
12123;DHT22;6125;59.628;17.852;2023-11-25T11:03:48;-5.60;99.90
12123;DHT22;6125;59.628;17.852;2023-11-25T11:06:20;-5.70;99.90
12123;DHT22;6125;59.628;17.852;2023-11-25T11:08:49;-5.70;99.90
12123;DHT22;6125;59.628;17.852;2023-11-25T11:11:27;-5.60;99.90
12123;DHT22;6125;59.628;17.852;2023-11-25T11:14:00;-5.60;99.90
12123;DHT22;6125;59.628;17.852;2023-11-25T11:16:37;-5.50;99.90
12123;DHT22;6125;59.628;17.852;2023-11-25T11:19:10;-5.40;99.90
12123;DHT22;6125;59.628;17.852;2023-11-25T11:21:39;-5.40;99.90
12123;DHT22;6125;59.628;17.852;2023-11-25T11:24:13;-5.30;99.90
12123;DHT22;6125;59.628;17.852;2023-11-25T11:26:49;-5.20;99.90
12123;DHT22;6125;59.628;17.852;2023-11-25T11:29:25;-5.20;99.90
12123;DHT22;6125;59.628;17.852;2023-11-25T11:32:00;-5.20;99.90
12123;DHT22;6125;59.628;17.852;2023-11-25T11:34:33;-5.20;99.90
12123;DHT22;6125;59.628;17.852;2023-11-25T11:37:01;-5.10;99.90
12123;DHT22;6125;59.628;17.852;2023-11-25T11:39:39;-5.10;99.90
12123;DHT22;6125;59.628;17.852;2023-11-25T11:42:27;-5.10;99.90
12123;DHT22;6125;59.628;17.852;2023-11-25T11:44:59;-5.10;99.90
12123;DHT22;6125;59.628;17.852;2023-11-25T11:47:40;-5.10;99.90
12123;DHT22;6125;59.628;17.852;2023-11-25T11:50:15;-5.10;99.90
12123;DHT22;6125;59.628;17.852;2023-11-25T11:52:46;-5.10;99.90
12123;DHT22;6125;59.628;17.852;2023-11-25T11:55:36;-5.10;99.90
12123;DHT22;6125;59.628;17.852;2023-11-25T11:58:07;-5.00;99.90
12123;DHT22;6125;59.628;17.852;2023-11-25T12:00:41;-5.00;99.90
12123;DHT22;6125;59.628;17.852;2023-11-25T12:03:09;-5.00;99.90
12123;DHT22;6125;59.628;17.852;2023-11-25T12:05:38;-4.90;99.90
12123;DHT22;6125;59.628;17.852;2023-11-25T12:08:06;-5.00;99.90
12123;DHT22;6125;59.628;17.852;2023-11-25T12:10:34;-5.10;99.90
12123;DHT22;6125;59.628;17.852;2023-11-25T12:13:02;-5.10;99.90
12123;DHT22;6125;59.628;17.852;2023-11-25T12:15:31;-5.10;99.90
12123;DHT22;6125;59.628;17.852;2023-11-25T12:18:01;-5.20;99.90
12123;DHT22;6125;59.628;17.852;2023-11-25T12:20:32;-5.20;99.90
12123;DHT22;6125;59.628;17.852;2023-11-25T12:23:06;-5.30;99.90
12123;DHT22;6125;59.628;17.852;2023-11-25T12:25:35;-5.40;99.90
12123;DHT22;6125;59.628;17.852;2023-11-25T12:28:07;-5.40;99.90
12123;DHT22;6125;59.628;17.852;2023-11-25T12:30:35;-5.40;99.90
12123;DHT22;6125;59.628;17.852;2023-11-25T12:33:03;-5.50;99.90
12123;DHT22;6125;59.628;17.852;2023-11-25T12:35:41;-5.50;99.90
12123;DHT22;6125;59.628;17.852;2023-11-25T12:38:11;-5.50;99.90
12123;DHT22;6125;59.628;17.852;2023-11-25T12:40:39;-5.50;99.90
12123;DHT22;6125;59.628;17.852;2023-11-25T12:43:07;-5.50;99.90
12123;DHT22;6125;59.628;17.852;2023-11-25T12:45:37;-5.50;99.90
12123;DHT22;6125;59.628;17.852;2023-11-25T12:48:07;-5.60;99.90
12123;DHT22;6125;59.628;17.852;2023-11-25T12:53:21;-5.60;99.90
12123;DHT22;6125;59.628;17.852;2023-11-25T12:55:48;-5.70;99.90
12123;DHT22;6125;59.628;17.852;2023-11-25T12:58:18;-5.70;99.90
12123;DHT22;6125;59.628;17.852;2023-11-25T13:00:48;-5.70;99.90
12123;DHT22;6125;59.628;17.852;2023-11-25T13:03:23;-5.70;99.90
12123;DHT22;6125;59.628;17.852;2023-11-25T13:05:57;-5.60;99.90
12123;DHT22;6125;59.628;17.852;2023-11-25T13:08:30;-5.70;99.90
12123;DHT22;6125;59.628;17.852;2023-11-25T13:11:00;-5.60;99.90
12123;DHT22;6125;59.628;17.852;2023-11-25T13:13:29;-5.60;99.90
12123;DHT22;6125;59.628;17.852;2023-11-25T13:15:59;-5.60;99.90
12123;DHT22;6125;59.628;17.852;2023-11-25T13:18:26;-5.60;99.90
12123;DHT22;6125;59.628;17.852;2023-11-25T13:20:55;-5.50;99.90
12123;DHT22;6125;59.628;17.852;2023-11-25T13:23:25;-5.60;99.90
12123;DHT22;6125;59.628;17.852;2023-11-25T13:25:54;-5.50;99.90
12123;DHT22;6125;59.628;17.852;2023-11-25T13:28:21;-5.50;99.90
12123;DHT22;6125;59.628;17.852;2023-11-25T13:30:49;-5.50;99.90
12123;DHT22;6125;59.628;17.852;2023-11-25T13:33:16;-5.50;99.90
12123;DHT22;6125;59.628;17.852;2023-11-25T13:35:45;-5.50;99.90
12123;DHT22;6125;59.628;17.852;2023-11-25T13:38:12;-5.50;99.90
12123;DHT22;6125;59.628;17.852;2023-11-25T13:40:43;-5.50;99.90
12123;DHT22;6125;59.628;17.852;2023-11-25T13:43:12;-5.50;99.90
12123;DHT22;6125;59.628;17.852;2023-11-25T13:45:40;-5.50;99.90
12123;DHT22;6125;59.628;17.852;2023-11-25T13:48:08;-5.40;99.90
12123;DHT22;6125;59.628;17.852;2023-11-25T13:50:38;-5.40;99.90
12123;DHT22;6125;59.628;17.852;2023-11-25T13:53:07;-5.40;99.90
12123;DHT22;6125;59.628;17.852;2023-11-25T13:55:35;-5.40;99.90
12123;DHT22;6125;59.628;17.852;2023-11-25T13:58:09;-5.40;99.90
12123;DHT22;6125;59.628;17.852;2023-11-25T14:00:36;-5.40;99.90
12123;DHT22;6125;59.628;17.852;2023-11-25T14:03:03;-5.40;99.90
12123;DHT22;6125;59.628;17.852;2023-11-25T14:05:34;-5.40;99.90
12123;DHT22;6125;59.628;17.852;2023-11-25T14:08:08;-5.40;99.90
12123;DHT22;6125;59.628;17.852;2023-11-25T14:10:36;-5.40;99.90
12123;DHT22;6125;59.628;17.852;2023-11-25T14:13:04;-5.40;99.90
12123;DHT22;6125;59.628;17.852;2023-11-25T14:15:34;-5.40;99.90
12123;DHT22;6125;59.628;17.852;2023-11-25T14:18:02;-5.40;99.90
12123;DHT22;6125;59.628;17.852;2023-11-25T14:20:31;-5.40;99.90
12123;DHT22;6125;59.628;17.852;2023-11-25T14:23:00;-5.40;99.90
12123;DHT22;6125;59.628;17.852;2023-11-25T14:25:31;-5.40;99.90
12123;DHT22;6125;59.628;17.852;2023-11-25T14:27:58;-5.30;99.90
12123;DHT22;6125;59.628;17.852;2023-11-25T14:30:27;-5.40;99.90
12123;DHT22;6125;59.628;17.852;2023-11-25T14:32:58;-5.40;99.90
12123;DHT22;6125;59.628;17.852;2023-11-25T14:35:25;-5.40;99.90
12123;DHT22;6125;59.628;17.852;2023-11-25T14:37:53;-5.40;99.90
12123;DHT22;6125;59.628;17.852;2023-11-25T14:40:21;-5.40;99.90
12123;DHT22;6125;59.628;17.852;2023-11-25T14:42:49;-5.40;99.90
12123;DHT22;6125;59.628;17.852;2023-11-25T14:45:19;-5.30;99.90
12123;DHT22;6125;59.628;17.852;2023-11-25T14:47:47;-5.30;99.90
12123;DHT22;6125;59.628;17.852;2023-11-25T14:50:15;-5.40;99.90
12123;DHT22;6125;59.628;17.852;2023-11-25T14:52:43;-5.30;99.90
12123;DHT22;6125;59.628;17.852;2023-11-25T14:55:10;-5.30;99.90
12123;DHT22;6125;59.628;17.852;2023-11-25T14:57:37;-5.30;99.90
12123;DHT22;6125;59.628;17.852;2023-11-25T15:00:06;-5.30;99.90
12123;DHT22;6125;59.628;17.852;2023-11-25T15:02:36;-5.30;99.90
12123;DHT22;6125;59.628;17.852;2023-11-25T15:05:04;-5.30;99.90
12123;DHT22;6125;59.628;17.852;2023-11-25T15:07:33;-5.30;99.90
12123;DHT22;6125;59.628;17.852;2023-11-25T15:10:01;-5.30;99.90
12123;DHT22;6125;59.628;17.852;2023-11-25T15:12:29;-5.30;99.90
12123;DHT22;6125;59.628;17.852;2023-11-25T15:14:56;-5.30;99.90
12123;DHT22;6125;59.628;17.852;2023-11-25T15:17:24;-5.20;99.90
12123;DHT22;6125;59.628;17.852;2023-11-25T15:19:51;-5.30;99.90
12123;DHT22;6125;59.628;17.852;2023-11-25T15:22:18;-5.30;99.90
12123;DHT22;6125;59.628;17.852;2023-11-25T15:24:47;-5.30;99.90
12123;DHT22;6125;59.628;17.852;2023-11-25T15:27:14;-5.40;99.90
12123;DHT22;6125;59.628;17.852;2023-11-25T15:29:56;-5.40;99.90
12123;DHT22;6125;59.628;17.852;2023-11-25T15:32:27;-5.50;99.90
12123;DHT22;6125;59.628;17.852;2023-11-25T15:34:55;-5.50;99.90
12123;DHT22;6125;59.628;17.852;2023-11-25T15:37:22;-5.60;99.90
12123;DHT22;6125;59.628;17.852;2023-11-25T15:39:53;-5.60;99.90
12123;DHT22;6125;59.628;17.852;2023-11-25T15:42:22;-5.60;99.90
12123;DHT22;6125;59.628;17.852;2023-11-25T15:44:49;-5.70;99.90